Terminal Aerodrome Forecast
Issued by NWS Mt. Holly, NJ

Home | Current Version | Previous Version | Text Only | Print | Product List | Glossary On
Versions: 1 2 3 4 5 6 7 8 9 10 11 12 13 14 15 16 17 18 19 20 21 22 23 24 25 26 27 28 29 30
733
FTUS41 KPHI 170835 AAA
TAFPHL
TAF AMD
KPHL 170835Z 1709/1812 00000KT P6SM VCSH BKN027 OVC045
     FM171100 14005KT P6SM VCSH OVC020
     FM171500 14005KT 5SM -RA BR OVC009
     FM172200 17005KT 2SM -DZ BR OVC004
     FM180600 VRB03KT 1SM BR OVC003
     FM180900 29004KT 3SM -SHRA BR OVC005=

USA.gov is the U.S. government's official web portal to all federal, state and local government web resources and services.